createdAt,value
2023-05-21T00:00:35.256Z,12.38
2023-05-21T00:01:35.279Z,12.38
2023-05-21T00:02:35.288Z,12.38
2023-05-21T00:03:35.329Z,12.38
2023-05-21T00:04:35.210Z,12.37
2023-05-21T00:05:35.395Z,12.37
2023-05-21T00:06:35.415Z,12.37
2023-05-21T00:07:35.190Z,12.34
2023-05-21T00:08:35.196Z,12.35
2023-05-21T00:09:35.154Z,12.34
2023-05-21T00:10:35.157Z,12.37
2023-05-21T00:11:35.146Z,12.34
2023-05-21T00:12:35.132Z,12.34
2023-05-21T00:13:35.114Z,12.32
2023-05-21T00:14:35.108Z,12.32
2023-05-21T00:15:35.321Z,12.34
2023-05-21T00:16:35.153Z,12.31
2023-05-21T00:17:35.117Z,12.29
2023-05-21T00:18:35.077Z,12.28
2023-05-21T00:19:35.049Z,12.27
2023-05-21T00:20:35.056Z,12.27
2023-05-21T00:21:35.031Z,12.24
2023-05-21T00:22:35.048Z,12.21
2023-05-21T00:23:35.022Z,12.19
2023-05-21T00:24:35.060Z,12.20
2023-05-21T00:25:35.255Z,12.19
2023-05-21T00:26:34.982Z,12.17
2023-05-21T00:27:34.973Z,12.16
2023-05-21T00:28:34.970Z,12.14
2023-05-21T00:29:34.969Z,12.14
2023-05-21T00:30:34.946Z,12.12
2023-05-21T00:31:34.974Z,12.10
2023-05-21T00:32:34.946Z,12.09
2023-05-21T00:33:34.900Z,12.07
2023-05-21T00:34:34.904Z,12.05
2023-05-21T00:35:35.138Z,12.04
2023-05-21T00:36:34.876Z,12.02
2023-05-21T00:37:34.851Z,12.02
2023-05-21T00:38:34.836Z,12.01
2023-05-21T00:39:34.835Z,12.02
2023-05-21T00:40:34.832Z,11.96
2023-05-21T00:41:34.829Z,11.96
2023-05-21T00:42:34.796Z,11.94
2023-05-21T00:43:34.786Z,11.94
2023-05-21T00:44:34.775Z,11.90
2023-05-21T00:45:35.033Z,11.88
2023-05-21T00:46:34.812Z,11.85
2023-05-21T00:47:34.818Z,11.86
2023-05-21T00:48:34.736Z,11.85
2023-05-21T00:49:34.730Z,11.83
2023-05-21T00:50:34.712Z,11.80
2023-05-21T00:51:34.713Z,11.80
2023-05-21T00:52:34.708Z,11.82
2023-05-21T00:53:34.698Z,11.78
2023-05-21T00:54:34.673Z,11.76
2023-05-21T00:55:34.943Z,11.79
2023-05-21T00:56:34.650Z,11.78
2023-05-21T00:57:34.633Z,11.79
2023-05-21T00:58:34.616Z,11.78
2023-05-21T00:59:34.618Z,11.79
2023-05-21T01:00:34.599Z,11.79
2023-05-21T01:01:34.639Z,11.80
2023-05-21T01:02:34.792Z,11.80
2023-05-21T01:03:34.596Z,11.82
2023-05-21T01:04:34.566Z,11.80
2023-05-21T01:05:34.733Z,11.82
2023-05-21T01:06:34.569Z,11.83
2023-05-21T01:07:34.544Z,11.83
2023-05-21T01:08:34.523Z,11.80
2023-05-21T01:09:34.515Z,11.83
2023-05-21T01:10:34.484Z,11.80
2023-05-21T01:11:34.480Z,11.83
2023-05-21T01:12:34.481Z,11.83
2023-05-21T01:13:34.459Z,11.85
2023-05-21T01:14:34.457Z,11.83
2023-05-21T01:15:34.697Z,11.85
2023-05-21T01:16:34.447Z,11.83
2023-05-21T01:17:34.581Z,11.85
2023-05-21T01:18:34.478Z,11.85
2023-05-21T01:19:34.462Z,11.86
2023-05-21T01:20:34.379Z,11.85
2023-05-21T01:21:34.379Z,11.86
2023-05-21T01:22:34.359Z,11.83
2023-05-21T01:23:34.374Z,11.82
2023-05-21T01:24:34.359Z,11.82
2023-05-21T01:25:34.601Z,11.80
2023-05-21T01:26:34.316Z,11.80
2023-05-21T01:27:34.326Z,11.80
2023-05-21T01:28:34.310Z,11.76
2023-05-21T01:29:34.308Z,11.76
2023-05-21T01:30:34.279Z,11.76
2023-05-21T01:31:34.276Z,11.76
2023-05-21T01:32:34.423Z,11.75
2023-05-21T01:33:34.292Z,11.75
2023-05-21T01:34:34.223Z,11.72
2023-05-21T01:35:34.437Z,11.70
2023-05-21T01:36:34.225Z,11.70
2023-05-21T01:37:34.220Z,11.70
2023-05-21T01:38:34.179Z,11.70
2023-05-21T01:39:34.189Z,11.67
2023-05-21T01:40:34.165Z,11.65
2023-05-21T01:41:34.180Z,11.65
2023-05-21T01:42:34.140Z,11.67
2023-05-21T01:43:34.146Z,11.65
2023-05-21T01:44:34.130Z,11.64
2023-05-21T01:45:34.227Z,11.62
2023-05-21T01:46:34.159Z,11.64
2023-05-21T01:47:34.098Z,11.62
2023-05-21T01:48:34.076Z,11.62
2023-05-21T01:49:34.075Z,11.62
2023-05-21T01:50:34.073Z,11.61
2023-05-21T01:51:34.082Z,11.62
2023-05-21T01:52:34.053Z,11.61
2023-05-21T01:53:34.038Z,11.61
2023-05-21T01:54:34.031Z,11.61
2023-05-21T01:55:34.284Z,11.60
2023-05-21T01:56:34.111Z,11.60
2023-05-21T01:57:34.012Z,11.61
2023-05-21T01:58:33.978Z,11.61
2023-05-21T01:59:33.967Z,11.58
2023-05-21T02:00:33.962Z,11.57
2023-05-21T02:01:33.944Z,11.58
2023-05-21T02:02:34.025Z,11.57
2023-05-21T02:03:34.037Z,11.58
2023-05-21T02:04:33.900Z,11.57
2023-05-21T02:05:34.001Z,11.58
2023-05-21T02:06:33.876Z,11.57
2023-05-21T02:07:33.886Z,11.57
2023-05-21T02:08:33.856Z,11.60
2023-05-21T02:09:33.840Z,11.58
2023-05-21T02:10:33.839Z,11.57
2023-05-21T02:11:33.846Z,11.60
2023-05-21T02:12:33.829Z,11.60
2023-05-21T02:13:33.807Z,11.61
2023-05-21T02:14:33.815Z,11.61
2023-05-21T02:15:33.934Z,11.61
2023-05-21T02:16:33.839Z,11.62
2023-05-21T02:17:33.785Z,11.62
2023-05-21T02:18:33.745Z,11.62
2023-05-21T02:19:33.780Z,11.64
2023-05-21T02:20:33.727Z,11.64
2023-05-21T02:21:33.727Z,11.62
2023-05-21T02:22:33.723Z,11.65
2023-05-21T02:23:33.723Z,11.65
2023-05-21T02:24:33.683Z,11.67
2023-05-21T02:25:33.936Z,11.67
2023-05-21T02:26:33.656Z,11.67
2023-05-21T02:27:33.661Z,11.69
2023-05-21T02:28:33.653Z,11.67
2023-05-21T02:29:33.648Z,11.69
2023-05-21T02:30:33.653Z,11.67
2023-05-21T02:31:33.613Z,11.67
2023-05-21T02:32:33.634Z,11.65
2023-05-21T02:33:33.599Z,11.64
2023-05-21T02:34:33.584Z,11.67
2023-05-21T02:35:33.693Z,11.67
2023-05-21T02:36:33.590Z,11.65
2023-05-21T02:37:33.645Z,11.65
2023-05-21T02:38:33.541Z,11.65
2023-05-21T02:39:33.520Z,11.64
2023-05-21T02:40:33.538Z,11.67
2023-05-21T02:41:33.514Z,11.64
2023-05-21T02:42:33.497Z,11.65
2023-05-21T02:43:33.497Z,11.67
2023-05-21T02:44:33.472Z,11.67
2023-05-21T02:45:33.505Z,11.67
2023-05-21T02:46:33.482Z,11.69
2023-05-21T02:47:33.490Z,11.67
2023-05-21T02:48:33.429Z,11.70
2023-05-21T02:49:33.426Z,11.69
2023-05-21T02:50:33.427Z,11.70
2023-05-21T02:51:33.413Z,11.73
2023-05-21T02:52:33.397Z,11.75
2023-05-21T02:53:33.393Z,11.76
2023-05-21T02:54:33.365Z,11.79
2023-05-21T02:55:33.503Z,11.79
2023-05-21T02:56:33.343Z,11.79
2023-05-21T02:57:33.339Z,11.80
2023-05-21T02:58:33.334Z,11.80
2023-05-21T02:59:33.313Z,11.76
2023-05-21T03:00:33.309Z,11.79
2023-05-21T03:01:33.316Z,11.79
2023-05-21T03:02:33.392Z,11.78
2023-05-21T03:03:33.325Z,11.78
2023-05-21T03:04:33.210Z,11.80
2023-05-21T03:05:33.274Z,11.79
2023-05-21T03:06:33.271Z,11.78
2023-05-21T03:07:33.203Z,11.78
2023-05-21T03:08:33.226Z,11.78
2023-05-21T03:09:33.182Z,11.78
2023-05-21T03:10:33.205Z,11.78
2023-05-21T03:11:33.135Z,11.76
2023-05-21T03:12:33.128Z,11.78
2023-05-21T03:13:33.151Z,11.78
2023-05-21T03:14:33.146Z,11.76
2023-05-21T03:15:33.065Z,11.76
2023-05-21T03:16:33.111Z,11.76
2023-05-21T03:17:33.093Z,11.76
2023-05-21T03:18:33.052Z,11.75
2023-05-21T03:19:33.063Z,11.76
2023-05-21T03:20:33.031Z,11.75
2023-05-21T03:21:32.996Z,11.72
2023-05-21T03:22:33.033Z,11.70
2023-05-21T03:23:32.995Z,11.72
2023-05-21T03:24:33.030Z,11.70
2023-05-21T03:25:33.062Z,11.69
2023-05-21T03:26:32.983Z,11.67
2023-05-21T03:27:32.964Z,11.67
2023-05-21T03:28:32.964Z,11.65
2023-05-21T03:29:32.943Z,11.65
2023-05-21T03:30:32.916Z,11.65
2023-05-21T03:31:32.946Z,11.65
2023-05-21T03:32:32.913Z,11.64
2023-05-21T03:33:32.889Z,11.62
2023-05-21T03:34:32.903Z,11.64
2023-05-21T03:35:32.894Z,11.64
2023-05-21T03:36:32.860Z,11.64
2023-05-21T03:37:32.857Z,11.65
2023-05-21T03:38:33.234Z,11.62
2023-05-21T03:39:32.819Z,11.65
2023-05-21T03:40:32.810Z,11.64
2023-05-21T03:41:32.799Z,11.65
2023-05-21T03:42:32.828Z,11.64
2023-05-21T03:43:32.791Z,11.65
2023-05-21T03:44:32.778Z,11.65
2023-05-21T03:45:32.787Z,11.67
2023-05-21T03:46:32.829Z,11.64
2023-05-21T03:47:32.792Z,11.64
2023-05-21T03:48:32.735Z,11.64
2023-05-21T03:49:32.711Z,11.65
2023-05-21T03:50:32.711Z,11.67
2023-05-21T03:51:32.696Z,11.65
2023-05-21T03:52:32.668Z,11.67
2023-05-21T03:53:32.670Z,11.65
2023-05-21T03:54:32.688Z,11.65
2023-05-21T03:55:32.661Z,11.67
2023-05-21T03:56:32.625Z,11.67
2023-05-21T03:57:32.640Z,11.67
2023-05-21T03:58:32.612Z,11.69
2023-05-21T03:59:32.628Z,11.69
2023-05-21T04:00:32.614Z,11.67
2023-05-21T04:01:32.563Z,11.67
2023-05-21T04:02:32.730Z,11.65
2023-05-21T04:03:32.730Z,11.64
2023-05-21T04:04:32.590Z,11.64
2023-05-21T04:05:32.532Z,11.62
2023-05-21T04:06:32.550Z,11.60
2023-05-21T04:07:32.529Z,11.61
2023-05-21T04:08:32.505Z,11.61
2023-05-21T04:09:32.940Z,11.61
2023-05-21T04:10:32.509Z,11.60
2023-05-21T04:11:32.484Z,11.60
2023-05-21T04:12:32.468Z,11.60
2023-05-21T04:13:32.459Z,11.57
2023-05-21T04:14:32.462Z,11.58
2023-05-21T04:15:32.408Z,11.57
2023-05-21T04:16:32.466Z,11.57
2023-05-21T04:17:32.447Z,11.60
2023-05-21T04:18:32.392Z,11.57
2023-05-21T04:19:32.517Z,11.58
2023-05-21T04:20:32.396Z,11.61
2023-05-21T04:21:32.360Z,11.58
2023-05-21T04:22:32.364Z,11.60
2023-05-21T04:23:32.337Z,11.61
2023-05-21T04:24:32.374Z,11.62
2023-05-21T04:25:32.319Z,11.61
2023-05-21T04:26:32.306Z,11.62
2023-05-21T04:27:32.287Z,11.64
2023-05-21T04:28:32.298Z,11.65
2023-05-21T04:29:32.302Z,11.67
2023-05-21T04:30:32.264Z,11.65
2023-05-21T04:31:32.351Z,11.65
2023-05-21T04:32:32.286Z,11.69
2023-05-21T04:33:32.229Z,11.70
2023-05-21T04:34:32.230Z,11.69
2023-05-21T04:35:32.214Z,11.70
2023-05-21T04:36:32.260Z,11.70
2023-05-21T04:37:32.187Z,11.73
2023-05-21T04:38:32.200Z,11.73
2023-05-21T04:39:32.168Z,11.73
2023-05-21T04:40:32.166Z,11.76
2023-05-21T04:41:32.164Z,11.75
2023-05-21T04:42:32.134Z,11.75
2023-05-21T04:43:32.142Z,11.75
2023-05-21T04:44:32.119Z,11.76
2023-05-21T04:45:32.112Z,11.78
2023-05-21T04:46:32.175Z,11.76
2023-05-21T04:47:32.169Z,11.78
2023-05-21T04:48:32.083Z,11.79
2023-05-21T04:49:32.088Z,11.79
2023-05-21T04:50:32.058Z,11.80
2023-05-21T04:51:32.047Z,11.82
2023-05-21T04:52:32.016Z,11.83
2023-05-21T04:53:32.016Z,11.83
2023-05-21T04:54:32.010Z,11.85
2023-05-21T04:55:32.003Z,11.86
2023-05-21T04:56:32.071Z,11.88
2023-05-21T04:57:31.974Z,11.88
2023-05-21T04:58:31.957Z,11.88
2023-05-21T04:59:31.953Z,11.90
2023-05-21T05:00:31.989Z,11.90
2023-05-21T05:01:31.914Z,11.91
2023-05-21T05:02:31.952Z,11.91
2023-05-21T05:03:31.926Z,11.94
2023-05-21T05:04:31.921Z,11.94
2023-05-21T05:05:31.877Z,11.94
2023-05-21T05:06:31.903Z,11.95
2023-05-21T05:07:31.860Z,11.94
2023-05-21T05:08:31.860Z,11.95
2023-05-21T05:09:31.851Z,11.95
2023-05-21T05:10:31.859Z,11.98
2023-05-21T05:11:31.846Z,11.98
2023-05-21T05:12:31.817Z,11.96
2023-05-21T05:13:31.785Z,11.98
2023-05-21T05:14:31.801Z,11.98
2023-05-21T05:15:31.787Z,11.99
2023-05-21T05:16:31.794Z,11.98
2023-05-21T05:17:31.772Z,11.99
2023-05-21T05:18:31.749Z,11.99
2023-05-21T05:19:31.851Z,11.99
2023-05-21T05:20:31.766Z,11.99
2023-05-21T05:21:31.723Z,12.01
2023-05-21T05:22:31.691Z,12.02
2023-05-21T05:23:31.691Z,12.02
2023-05-21T05:24:31.678Z,12.04
2023-05-21T05:25:31.683Z,12.07
2023-05-21T05:26:31.652Z,12.07
2023-05-21T05:27:31.635Z,12.07
2023-05-21T05:28:31.638Z,12.09
2023-05-21T05:29:31.637Z,12.12
2023-05-21T05:30:31.664Z,12.10
2023-05-21T05:31:31.706Z,12.12
2023-05-21T05:32:31.689Z,12.14
2023-05-21T05:33:31.582Z,12.14
2023-05-21T05:34:31.567Z,12.16
2023-05-21T05:35:31.547Z,12.17
2023-05-21T05:36:31.574Z,12.19
2023-05-21T05:37:31.523Z,12.21
2023-05-21T05:38:31.555Z,12.20
2023-05-21T05:39:31.512Z,12.19
2023-05-21T05:40:31.541Z,12.21
2023-05-21T05:41:31.533Z,12.23
2023-05-21T05:42:31.495Z,12.21
2023-05-21T05:43:31.464Z,12.21
2023-05-21T05:44:31.484Z,12.23
2023-05-21T05:45:31.654Z,12.24
2023-05-21T05:46:31.464Z,12.24
2023-05-21T05:47:31.479Z,12.28
2023-05-21T05:48:31.451Z,12.29
2023-05-21T05:49:31.422Z,12.29
2023-05-21T05:50:31.399Z,12.32
2023-05-21T05:51:31.416Z,12.31
2023-05-21T05:52:31.377Z,12.32
2023-05-21T05:53:31.368Z,12.34
2023-05-21T05:54:31.367Z,12.34
2023-05-21T05:55:31.342Z,12.34
2023-05-21T05:56:31.336Z,12.35
2023-05-21T05:57:31.310Z,12.37
2023-05-21T05:58:31.312Z,12.35
2023-05-21T05:59:31.289Z,12.35
2023-05-21T06:00:31.293Z,12.37
2023-05-21T06:01:31.309Z,12.38
2023-05-21T06:02:31.428Z,12.39
2023-05-21T06:03:31.385Z,12.39
2023-05-21T06:04:31.246Z,12.41
2023-05-21T06:05:31.295Z,12.42
2023-05-21T06:06:31.234Z,12.41
2023-05-21T06:07:31.194Z,12.42
2023-05-21T06:08:31.185Z,12.42
2023-05-21T06:09:31.192Z,12.45
2023-05-21T06:10:31.180Z,12.45
2023-05-21T06:11:31.153Z,12.47
2023-05-21T06:12:31.152Z,12.50
2023-05-21T06:13:31.132Z,12.52
2023-05-21T06:14:31.137Z,12.53
2023-05-21T06:15:31.102Z,12.53
2023-05-21T06:16:31.199Z,12.56
2023-05-21T06:17:31.123Z,12.60
2023-05-21T06:18:31.112Z,12.57
2023-05-21T06:19:31.207Z,12.60
2023-05-21T06:20:31.074Z,12.64
2023-05-21T06:21:31.052Z,12.64
2023-05-21T06:22:31.054Z,12.64
2023-05-21T06:23:31.049Z,12.62
2023-05-21T06:24:31.044Z,12.64
2023-05-21T06:25:31.090Z,12.64
2023-05-21T06:26:30.993Z,12.65
2023-05-21T06:27:31.005Z,12.67
2023-05-21T06:28:30.978Z,12.68
2023-05-21T06:29:30.973Z,12.70
2023-05-21T06:30:30.962Z,12.68
2023-05-21T06:31:30.956Z,12.70
2023-05-21T06:32:31.004Z,12.70
2023-05-21T06:33:31.013Z,12.74
2023-05-21T06:34:30.922Z,12.74
2023-05-21T06:35:30.897Z,12.74
2023-05-21T06:36:30.927Z,12.77
2023-05-21T06:37:30.903Z,12.78
2023-05-21T06:38:30.863Z,12.82
2023-05-21T06:39:30.852Z,12.85
2023-05-21T06:40:30.838Z,12.86
2023-05-21T06:41:30.837Z,12.87
2023-05-21T06:42:30.817Z,12.87
2023-05-21T06:43:30.831Z,12.90
2023-05-21T06:44:30.789Z,12.92
2023-05-21T06:45:30.840Z,12.93
2023-05-21T06:46:30.944Z,12.92
2023-05-21T06:47:30.808Z,12.93
2023-05-21T06:48:30.758Z,12.92
2023-05-21T06:49:30.774Z,12.95
2023-05-21T06:50:30.739Z,13.00
2023-05-21T06:51:30.724Z,13.01
2023-05-21T06:52:30.732Z,13.04
2023-05-21T06:53:30.775Z,13.07
2023-05-21T06:54:30.680Z,13.07
2023-05-21T06:55:30.671Z,13.10
2023-05-21T06:56:30.676Z,13.11
2023-05-21T06:57:30.683Z,13.11
2023-05-21T06:58:30.635Z,13.12
2023-05-21T06:59:30.671Z,13.14
2023-05-21T07:00:30.631Z,13.15
2023-05-21T07:01:30.763Z,13.17
2023-05-21T07:02:30.698Z,13.22
2023-05-21T07:03:30.703Z,13.23
2023-05-21T07:04:30.605Z,13.26
2023-05-21T07:05:30.654Z,13.28
2023-05-21T07:06:30.574Z,13.33
2023-05-21T07:07:30.543Z,13.38
2023-05-21T07:08:30.607Z,13.41
2023-05-21T07:09:30.532Z,13.42
2023-05-21T07:10:30.503Z,13.45
2023-05-21T07:11:30.538Z,13.44
2023-05-21T07:12:30.527Z,13.42
2023-05-21T07:13:30.495Z,13.42
2023-05-21T07:14:30.467Z,13.42
2023-05-21T07:15:30.448Z,13.45
2023-05-21T07:16:30.482Z,13.45
2023-05-21T07:17:30.651Z,13.45
2023-05-21T07:18:30.427Z,13.49
2023-05-21T07:19:30.490Z,13.51
2023-05-21T07:20:30.416Z,13.55
2023-05-21T07:21:30.435Z,13.52
2023-05-21T07:22:30.415Z,13.55
2023-05-21T07:23:30.394Z,13.57
2023-05-21T07:24:30.439Z,13.57
2023-05-21T07:25:30.438Z,13.60
2023-05-21T07:26:30.355Z,13.60
2023-05-21T07:27:30.321Z,13.63
2023-05-21T07:28:30.320Z,13.66
2023-05-21T07:29:30.375Z,13.67
2023-05-21T07:30:30.330Z,13.71
2023-05-21T07:31:30.321Z,13.69
2023-05-21T07:32:30.341Z,13.75
2023-05-21T07:33:30.315Z,13.78
2023-05-21T07:34:30.246Z,13.79
2023-05-21T07:35:30.265Z,13.78
2023-05-21T07:36:30.228Z,13.75
2023-05-21T07:37:30.266Z,13.75
2023-05-21T07:38:30.205Z,13.77
2023-05-21T07:39:30.194Z,13.81
2023-05-21T07:40:30.191Z,13.81
2023-05-21T07:41:30.200Z,13.85
2023-05-21T07:42:30.326Z,13.89
2023-05-21T07:43:30.163Z,13.95
2023-05-21T07:44:30.133Z,13.97
2023-05-21T07:45:30.167Z,14.00
2023-05-21T07:46:30.213Z,14.04
2023-05-21T07:47:30.176Z,14.06
2023-05-21T07:48:30.114Z,14.06
2023-05-21T07:49:30.113Z,14.06
2023-05-21T07:50:30.078Z,14.04
2023-05-21T07:51:30.061Z,14.03
2023-05-21T07:52:30.089Z,14.06
2023-05-21T07:53:30.056Z,14.07
2023-05-21T07:54:30.070Z,14.09
2023-05-21T07:55:30.040Z,14.14
2023-05-21T07:56:30.036Z,14.18
2023-05-21T07:57:30.014Z,14.20
2023-05-21T07:58:30.006Z,14.22
2023-05-21T07:59:29.983Z,14.28
2023-05-21T08:00:29.985Z,14.29
2023-05-21T08:01:30.020Z,14.32
2023-05-21T08:02:30.016Z,14.32
2023-05-21T08:03:30.074Z,14.36
2023-05-21T08:04:29.987Z,14.39
2023-05-21T08:05:29.940Z,14.40
2023-05-21T08:06:29.907Z,14.40
2023-05-21T08:07:29.973Z,14.42
2023-05-21T08:08:29.901Z,14.45
2023-05-21T08:09:29.871Z,14.50
2023-05-21T08:10:29.862Z,14.52
2023-05-21T08:11:29.885Z,14.57
2023-05-21T08:12:29.852Z,14.58
2023-05-21T08:13:29.843Z,14.58
2023-05-21T08:14:29.848Z,14.60
2023-05-21T08:15:29.812Z,14.62
2023-05-21T08:16:29.869Z,14.70
2023-05-21T08:17:29.830Z,14.77
2023-05-21T08:18:29.791Z,14.77
2023-05-21T08:19:29.907Z,14.78
2023-05-21T08:20:29.751Z,14.80
2023-05-21T08:21:29.897Z,14.83
2023-05-21T08:22:29.730Z,14.88
2023-05-21T08:23:29.725Z,14.89
2023-05-21T08:24:29.725Z,14.91
2023-05-21T08:25:29.708Z,14.95
2023-05-21T08:26:29.706Z,14.98
2023-05-21T08:27:29.697Z,14.98
2023-05-21T08:28:29.756Z,15.01
2023-05-21T08:29:29.663Z,15.01
2023-05-21T08:30:29.647Z,15.02
2023-05-21T08:31:29.676Z,15.03
2023-05-21T08:32:29.693Z,15.06
2023-05-21T08:33:29.628Z,15.09
2023-05-21T08:34:29.601Z,15.14
2023-05-21T08:35:29.632Z,15.17
2023-05-21T08:36:29.614Z,15.23
2023-05-21T08:37:29.582Z,15.23
2023-05-21T08:38:30.495Z,15.27
2023-05-21T08:39:29.557Z,15.31
2023-05-21T08:40:29.555Z,15.34
2023-05-21T08:41:29.543Z,15.34
2023-05-21T08:43:29.524Z,15.41
2023-05-21T08:44:29.488Z,15.47
2023-05-21T08:45:29.536Z,15.53
2023-05-21T08:46:29.699Z,15.62
2023-05-21T08:47:29.518Z,15.62
2023-05-21T08:48:29.548Z,15.65
2023-05-21T08:49:29.467Z,15.69
2023-05-21T08:50:29.477Z,15.78
2023-05-21T08:51:29.445Z,15.84
2023-05-21T08:52:29.414Z,15.90
2023-05-21T08:53:29.518Z,15.89
2023-05-21T08:54:29.410Z,15.90
2023-05-21T08:55:29.382Z,15.94
2023-05-21T08:56:29.385Z,16.00
2023-05-21T08:57:29.393Z,16.01
2023-05-21T08:58:29.355Z,15.93
2023-05-21T08:59:29.334Z,15.93
2023-05-21T09:00:29.413Z,15.94
2023-05-21T09:01:29.427Z,16.01
2023-05-21T09:02:32.471Z,16.04
2023-05-21T09:03:30.669Z,16.09
2023-05-21T09:04:29.454Z,16.11
2023-05-21T09:05:32.561Z,16.12
2023-05-21T09:06:32.787Z,16.14
2023-05-21T09:07:29.327Z,16.15
2023-05-21T09:08:29.278Z,16.15
2023-05-21T09:09:29.220Z,16.17
2023-05-21T09:10:29.204Z,16.17
2023-05-21T09:11:29.205Z,16.23
2023-05-21T09:12:29.244Z,16.27
2023-05-21T09:13:29.176Z,16.28
2023-05-21T09:14:29.183Z,16.30
2023-05-21T09:15:29.179Z,16.31
2023-05-21T09:16:29.190Z,16.31
2023-05-21T09:17:29.260Z,16.30
2023-05-21T09:18:29.143Z,16.28
2023-05-21T09:19:29.313Z,16.27
2023-05-21T09:20:29.115Z,16.27
2023-05-21T09:21:29.152Z,16.27
2023-05-21T09:22:29.079Z,16.34
2023-05-21T09:23:29.074Z,16.43
2023-05-21T09:24:29.070Z,16.48
2023-05-21T09:25:29.153Z,16.52
2023-05-21T09:26:29.035Z,16.58
2023-05-21T09:27:29.030Z,16.64
2023-05-21T09:28:29.017Z,16.73
2023-05-21T09:29:29.045Z,16.81
2023-05-21T09:30:31.115Z,16.91
2023-05-21T09:31:29.000Z,16.93
2023-05-21T09:32:29.054Z,16.94
2023-05-21T09:33:28.981Z,16.93
2023-05-21T09:34:28.952Z,16.91
2023-05-21T09:35:28.999Z,16.94
2023-05-21T09:36:28.957Z,16.97
2023-05-21T09:37:28.949Z,17.04
2023-05-21T09:38:28.941Z,17.14
2023-05-21T09:39:28.916Z,17.12
2023-05-21T09:40:28.971Z,17.16
2023-05-21T09:41:28.914Z,17.18
2023-05-21T09:42:28.881Z,17.25
2023-05-21T09:43:28.899Z,17.30
2023-05-21T09:44:28.864Z,17.33
2023-05-21T09:45:28.848Z,17.36
2023-05-21T09:46:28.892Z,17.40
2023-05-21T09:47:28.892Z,17.44
2023-05-21T09:48:28.813Z,17.49
2023-05-21T09:49:28.912Z,17.55
2023-05-21T09:50:28.790Z,17.62
2023-05-21T09:51:28.786Z,17.68
2023-05-21T09:52:28.762Z,17.71
2023-05-21T09:53:28.774Z,17.75
2023-05-21T09:54:29.043Z,17.77
2023-05-21T09:55:28.750Z,17.79
2023-05-21T09:56:28.726Z,17.84
2023-05-21T09:57:28.714Z,17.89
2023-05-21T09:58:28.887Z,17.92
2023-05-21T09:59:28.687Z,18.00
2023-05-21T10:00:28.674Z,17.97
2023-05-21T10:01:28.814Z,17.92
2023-05-21T10:02:28.644Z,17.90
2023-05-21T10:03:28.632Z,17.92
2023-05-21T10:04:28.735Z,18.02
2023-05-21T10:05:28.616Z,18.11
2023-05-21T10:06:28.622Z,18.25
2023-05-21T10:07:28.598Z,18.37
2023-05-21T10:08:28.569Z,18.48
2023-05-21T10:09:28.573Z,18.57
2023-05-21T10:10:28.647Z,18.54
2023-05-21T10:11:28.583Z,18.51
2023-05-21T10:12:28.524Z,18.54
2023-05-21T10:13:28.589Z,18.57
2023-05-21T10:14:28.542Z,18.62
2023-05-21T10:15:28.550Z,18.60
2023-05-21T10:16:28.615Z,18.62
2023-05-21T10:17:28.578Z,18.73
2023-05-21T10:18:28.791Z,18.84
2023-05-21T10:19:28.550Z,18.87
2023-05-21T10:20:28.485Z,18.90
2023-05-21T10:21:28.431Z,18.94
2023-05-21T10:22:28.424Z,18.99
2023-05-21T10:23:28.424Z,19.00
2023-05-21T10:24:28.408Z,19.02
2023-05-21T10:25:28.398Z,18.99
2023-05-21T10:26:28.425Z,19.00
2023-05-21T10:27:29.401Z,19.06
2023-05-21T10:28:28.392Z,19.06
2023-05-21T10:29:28.381Z,19.13
2023-05-21T10:30:28.332Z,19.14
2023-05-21T10:31:28.355Z,19.14
2023-05-21T10:32:28.494Z,19.10
2023-05-21T10:33:28.333Z,19.08
2023-05-21T10:34:28.317Z,19.07
2023-05-21T10:35:28.313Z,18.95
2023-05-21T10:36:28.281Z,18.92
2023-05-21T10:37:28.260Z,18.92
2023-05-21T10:38:28.255Z,18.98
2023-05-21T10:39:28.247Z,18.99
2023-05-21T10:40:28.232Z,18.90
2023-05-21T10:41:28.241Z,18.90
2023-05-21T10:42:28.245Z,18.94
2023-05-21T10:43:28.220Z,18.98
2023-05-21T10:44:28.228Z,18.99
2023-05-21T10:45:28.215Z,18.94
2023-05-21T10:46:28.181Z,18.91
2023-05-21T10:47:28.210Z,18.85
2023-05-21T10:48:28.140Z,18.76
2023-05-21T10:49:28.185Z,18.70
2023-05-21T10:50:28.178Z,18.72
2023-05-21T10:51:28.116Z,18.73
2023-05-21T10:52:28.146Z,18.76
2023-05-21T10:53:28.100Z,18.84
2023-05-21T10:54:28.130Z,18.85
2023-05-21T10:55:28.127Z,18.90
2023-05-21T10:56:28.064Z,18.90
2023-05-21T10:57:28.056Z,18.90
2023-05-21T10:58:29.855Z,18.82
2023-05-21T10:59:28.030Z,18.78
2023-05-21T11:00:28.056Z,18.76
2023-05-21T11:01:28.105Z,18.75
2023-05-21T11:02:28.143Z,18.72
2023-05-21T11:03:28.084Z,18.72
2023-05-21T11:04:27.995Z,18.72
2023-05-21T11:05:27.956Z,18.75
2023-05-21T11:06:27.970Z,18.82
2023-05-21T11:07:27.932Z,18.84
2023-05-21T11:08:27.932Z,18.82
2023-05-21T11:09:27.910Z,18.81
2023-05-21T11:10:27.948Z,18.81
2023-05-21T11:11:27.908Z,18.82
2023-05-21T11:12:27.882Z,18.84
2023-05-21T11:13:27.871Z,18.90
2023-05-21T11:14:27.865Z,18.98
2023-05-21T11:15:27.841Z,19.04
2023-05-21T11:16:31.425Z,19.04
2023-05-21T11:17:27.880Z,19.10
2023-05-21T11:18:27.826Z,19.14
2023-05-21T11:19:27.858Z,19.19
2023-05-21T11:20:27.811Z,19.18
2023-05-21T11:21:27.815Z,19.21
2023-05-21T11:22:27.807Z,19.16
2023-05-21T11:23:27.759Z,19.10
2023-05-21T11:24:27.791Z,19.08
2023-05-21T11:25:27.747Z,19.07
2023-05-21T11:26:27.789Z,19.02
2023-05-21T11:27:27.711Z,19.04
2023-05-21T11:28:27.725Z,19.04
2023-05-21T11:29:27.721Z,19.06
2023-05-21T11:30:27.694Z,19.04
2023-05-21T11:31:27.741Z,19.06
2023-05-21T11:32:27.709Z,19.00
2023-05-21T11:33:27.663Z,19.04
2023-05-21T11:34:27.650Z,19.06
2023-05-21T11:35:27.635Z,19.10
2023-05-21T11:36:27.645Z,19.14
2023-05-21T11:37:27.625Z,19.18
2023-05-21T11:38:27.599Z,19.21
2023-05-21T11:39:27.583Z,19.21
2023-05-21T11:40:27.583Z,19.23
2023-05-21T11:41:27.754Z,19.25
2023-05-21T11:42:27.574Z,19.25
2023-05-21T11:43:27.625Z,19.26
2023-05-21T11:44:27.537Z,19.28
2023-05-21T11:45:27.644Z,19.31
2023-05-21T11:46:27.660Z,19.31
2023-05-21T11:47:27.636Z,19.33
2023-05-21T11:48:28.876Z,19.36
2023-05-21T11:49:27.515Z,19.39
2023-05-21T11:50:27.584Z,19.43
2023-05-21T11:51:27.635Z,19.47
2023-05-21T11:52:27.624Z,19.51
2023-05-21T11:53:27.442Z,19.47
2023-05-21T11:54:27.426Z,19.47
2023-05-21T11:55:27.420Z,19.47
2023-05-21T11:56:27.402Z,19.48
2023-05-21T11:57:27.388Z,19.55
2023-05-21T11:58:27.404Z,19.62
2023-05-21T11:59:27.396Z,19.66
2023-05-21T12:00:27.365Z,19.71
2023-05-21T12:01:27.344Z,19.73
2023-05-21T12:02:27.449Z,19.80
2023-05-21T12:03:27.591Z,19.81
2023-05-21T12:04:27.336Z,19.86
2023-05-21T12:05:27.382Z,19.92
2023-05-21T12:06:27.321Z,19.99
2023-05-21T12:07:27.281Z,20.10
2023-05-21T12:08:27.338Z,20.20
2023-05-21T12:09:27.260Z,20.29
2023-05-21T12:10:27.257Z,20.32
2023-05-21T12:11:27.268Z,20.35
2023-05-21T12:12:32.767Z,20.47
2023-05-21T12:13:27.221Z,20.47
2023-05-21T12:14:27.284Z,20.43
2023-05-21T12:15:27.297Z,20.47
2023-05-21T12:16:27.228Z,20.50
2023-05-21T12:17:27.204Z,20.52
2023-05-21T12:18:27.173Z,20.57
2023-05-21T12:19:28.065Z,20.61
2023-05-21T12:20:27.179Z,20.61
2023-05-21T12:21:27.133Z,20.51
2023-05-21T12:22:27.141Z,20.48
2023-05-21T12:23:27.119Z,20.48
2023-05-21T12:24:27.124Z,20.50
2023-05-21T12:25:27.085Z,20.50
2023-05-21T12:26:27.129Z,20.48
2023-05-21T12:27:27.063Z,20.47
2023-05-21T12:28:27.069Z,20.42
2023-05-21T12:29:27.069Z,20.47
2023-05-21T12:30:27.084Z,20.50
2023-05-21T12:31:27.066Z,20.42
2023-05-21T12:32:27.048Z,20.39
2023-05-21T12:33:27.002Z,20.43
2023-05-21T12:34:27.010Z,20.47
2023-05-21T12:35:27.031Z,20.42
2023-05-21T12:36:26.993Z,20.50
2023-05-21T12:37:27.059Z,20.52
2023-05-21T12:38:26.961Z,20.50
2023-05-21T12:39:26.947Z,20.52
2023-05-21T12:40:26.948Z,20.47
2023-05-21T12:41:26.920Z,20.43
2023-05-21T12:42:26.918Z,20.42
2023-05-21T12:43:26.894Z,20.39
2023-05-21T12:44:26.895Z,20.39
2023-05-21T12:45:26.894Z,20.41
2023-05-21T12:46:26.935Z,20.48
2023-05-21T12:47:26.946Z,20.50
2023-05-21T12:48:26.859Z,20.52
2023-05-21T12:49:26.838Z,20.55
2023-05-21T12:50:26.834Z,20.55
2023-05-21T12:51:26.818Z,20.52
2023-05-21T12:52:26.818Z,20.51
2023-05-21T12:53:26.794Z,20.50